sensor_id;sensor_type;location;lat;lon;timestamp;P1;durP1;ratioP1;P2;durP2;ratioP2
1106;SDS011;540;49.448;8.612;2023-07-13T00:01:17;1.20;;;0.90;;
1106;SDS011;540;49.448;8.612;2023-07-13T00:03:45;1.60;;;0.93;;
1106;SDS011;540;49.448;8.612;2023-07-13T00:06:13;2.03;;;0.95;;
1106;SDS011;540;49.448;8.612;2023-07-13T00:08:42;2.40;;;1.30;;
1106;SDS011;540;49.448;8.612;2023-07-13T00:11:10;1.98;;;1.10;;
1106;SDS011;540;49.448;8.612;2023-07-13T00:13:38;4.38;;;1.20;;
1106;SDS011;540;49.448;8.612;2023-07-13T00:16:07;3.22;;;1.08;;
1106;SDS011;540;49.448;8.612;2023-07-13T00:18:35;2.50;;;1.10;;
1106;SDS011;540;49.448;8.612;2023-07-13T00:21:03;1.50;;;0.88;;
1106;SDS011;540;49.448;8.612;2023-07-13T00:23:32;2.42;;;0.90;;
1106;SDS011;540;49.448;8.612;2023-07-13T00:26:02;2.75;;;1.17;;
1106;SDS011;540;49.448;8.612;2023-07-13T00:28:31;4.80;;;1.08;;
1106;SDS011;540;49.448;8.612;2023-07-13T00:31:00;3.15;;;1.00;;
1106;SDS011;540;49.448;8.612;2023-07-13T00:33:28;4.03;;;1.13;;
1106;SDS011;540;49.448;8.612;2023-07-13T00:35:56;1.83;;;0.85;;
1106;SDS011;540;49.448;8.612;2023-07-13T00:38:24;1.73;;;0.73;;
1106;SDS011;540;49.448;8.612;2023-07-13T00:40:52;1.52;;;0.82;;
1106;SDS011;540;49.448;8.612;2023-07-13T00:43:22;5.10;;;1.20;;
1106;SDS011;540;49.448;8.612;2023-07-13T00:48:49;2.03;;;0.98;;
1106;SDS011;540;49.448;8.612;2023-07-13T00:51:19;3.58;;;1.10;;
1106;SDS011;540;49.448;8.612;2023-07-13T00:53:52;2.65;;;0.93;;
1106;SDS011;540;49.448;8.612;2023-07-13T00:56:21;2.72;;;1.05;;
1106;SDS011;540;49.448;8.612;2023-07-13T00:58:50;2.05;;;1.00;;
1106;SDS011;540;49.448;8.612;2023-07-13T01:01:19;2.60;;;1.33;;
1106;SDS011;540;49.448;8.612;2023-07-13T01:03:47;4.18;;;1.40;;
1106;SDS011;540;49.448;8.612;2023-07-13T01:06:15;1.85;;;0.90;;
1106;SDS011;540;49.448;8.612;2023-07-13T01:08:43;1.63;;;1.00;;
1106;SDS011;540;49.448;8.612;2023-07-13T01:11:11;1.30;;;1.02;;
1106;SDS011;540;49.448;8.612;2023-07-13T01:13:43;2.70;;;1.05;;
1106;SDS011;540;49.448;8.612;2023-07-13T01:16:13;2.17;;;0.90;;
1106;SDS011;540;49.448;8.612;2023-07-13T01:18:46;4.43;;;1.30;;
1106;SDS011;540;49.448;8.612;2023-07-13T01:21:16;1.85;;;0.98;;
1106;SDS011;540;49.448;8.612;2023-07-13T01:23:45;2.35;;;0.82;;
1106;SDS011;540;49.448;8.612;2023-07-13T01:26:12;2.47;;;1.40;;
1106;SDS011;540;49.448;8.612;2023-07-13T01:28:40;3.50;;;1.67;;
1106;SDS011;540;49.448;8.612;2023-07-13T01:31:08;2.15;;;1.55;;
1106;SDS011;540;49.448;8.612;2023-07-13T01:33:37;2.85;;;1.45;;
1106;SDS011;540;49.448;8.612;2023-07-13T01:36:07;2.05;;;1.15;;
1106;SDS011;540;49.448;8.612;2023-07-13T01:38:38;3.83;;;1.50;;
1106;SDS011;540;49.448;8.612;2023-07-13T01:41:09;4.13;;;1.55;;
1106;SDS011;540;49.448;8.612;2023-07-13T01:43:37;2.63;;;1.50;;
1106;SDS011;540;49.448;8.612;2023-07-13T01:46:05;2.13;;;1.50;;
1106;SDS011;540;49.448;8.612;2023-07-13T01:48:49;4.00;;;1.30;;
1106;SDS011;540;49.448;8.612;2023-07-13T01:51:17;4.90;;;1.48;;
1106;SDS011;540;49.448;8.612;2023-07-13T01:53:46;2.35;;;1.63;;
1106;SDS011;540;49.448;8.612;2023-07-13T01:56:16;3.55;;;1.50;;
1106;SDS011;540;49.448;8.612;2023-07-13T01:58:44;3.40;;;1.73;;
1106;SDS011;540;49.448;8.612;2023-07-13T02:01:12;4.97;;;1.50;;
1106;SDS011;540;49.448;8.612;2023-07-13T02:03:40;7.60;;;1.48;;
1106;SDS011;540;49.448;8.612;2023-07-13T02:06:08;1.80;;;1.30;;
1106;SDS011;540;49.448;8.612;2023-07-13T02:08:37;1.63;;;1.30;;
1106;SDS011;540;49.448;8.612;2023-07-13T02:11:06;3.97;;;1.40;;
1106;SDS011;540;49.448;8.612;2023-07-13T02:13:34;2.22;;;1.67;;
1106;SDS011;540;49.448;8.612;2023-07-13T02:16:02;2.47;;;1.23;;
1106;SDS011;540;49.448;8.612;2023-07-13T02:18:30;2.58;;;1.40;;
1106;SDS011;540;49.448;8.612;2023-07-13T02:20:58;4.60;;;1.40;;
1106;SDS011;540;49.448;8.612;2023-07-13T02:23:25;3.72;;;1.20;;
1106;SDS011;540;49.448;8.612;2023-07-13T02:25:54;3.33;;;1.70;;
1106;SDS011;540;49.448;8.612;2023-07-13T02:28:24;2.10;;;1.60;;
1106;SDS011;540;49.448;8.612;2023-07-13T02:30:51;2.67;;;1.48;;
1106;SDS011;540;49.448;8.612;2023-07-13T02:33:19;3.15;;;2.05;;
1106;SDS011;540;49.448;8.612;2023-07-13T02:35:47;3.22;;;1.33;;
1106;SDS011;540;49.448;8.612;2023-07-13T02:38:15;2.63;;;1.42;;
1106;SDS011;540;49.448;8.612;2023-07-13T02:40:43;1.50;;;1.23;;
1106;SDS011;540;49.448;8.612;2023-07-13T02:43:11;4.05;;;1.27;;
1106;SDS011;540;49.448;8.612;2023-07-13T02:45:44;2.10;;;1.25;;
1106;SDS011;540;49.448;8.612;2023-07-13T02:48:13;3.45;;;1.40;;
1106;SDS011;540;49.448;8.612;2023-07-13T02:50:41;6.80;;;1.63;;
1106;SDS011;540;49.448;8.612;2023-07-13T02:53:08;4.50;;;1.30;;
1106;SDS011;540;49.448;8.612;2023-07-13T02:55:36;3.28;;;1.20;;
1106;SDS011;540;49.448;8.612;2023-07-13T02:58:04;2.03;;;1.35;;
1106;SDS011;540;49.448;8.612;2023-07-13T03:00:32;2.13;;;1.48;;
1106;SDS011;540;49.448;8.612;2023-07-13T03:03:01;2.65;;;1.42;;
1106;SDS011;540;49.448;8.612;2023-07-13T03:05:29;3.67;;;1.20;;
1106;SDS011;540;49.448;8.612;2023-07-13T03:07:57;2.88;;;1.40;;
1106;SDS011;540;49.448;8.612;2023-07-13T03:10:25;2.47;;;1.70;;
1106;SDS011;540;49.448;8.612;2023-07-13T03:12:53;3.72;;;1.80;;
1106;SDS011;540;49.448;8.612;2023-07-13T03:15:21;2.80;;;1.52;;
1106;SDS011;540;49.448;8.612;2023-07-13T03:17:48;6.00;;;1.40;;
1106;SDS011;540;49.448;8.612;2023-07-13T03:20:18;4.07;;;1.55;;
1106;SDS011;540;49.448;8.612;2023-07-13T03:22:46;2.70;;;1.52;;
1106;SDS011;540;49.448;8.612;2023-07-13T03:25:13;3.08;;;1.73;;
1106;SDS011;540;49.448;8.612;2023-07-13T03:27:41;2.63;;;1.52;;
1106;SDS011;540;49.448;8.612;2023-07-13T03:30:09;8.90;;;1.60;;
1106;SDS011;540;49.448;8.612;2023-07-13T03:32:38;2.33;;;1.30;;
1106;SDS011;540;49.448;8.612;2023-07-13T03:35:06;3.55;;;1.55;;
1106;SDS011;540;49.448;8.612;2023-07-13T03:37:36;3.65;;;1.50;;
1106;SDS011;540;49.448;8.612;2023-07-13T03:40:08;5.03;;;1.42;;
1106;SDS011;540;49.448;8.612;2023-07-13T03:42:37;3.03;;;1.50;;
1106;SDS011;540;49.448;8.612;2023-07-13T03:45:06;4.63;;;1.55;;
1106;SDS011;540;49.448;8.612;2023-07-13T03:47:34;8.27;;;1.70;;
1106;SDS011;540;49.448;8.612;2023-07-13T03:50:03;2.03;;;1.42;;
1106;SDS011;540;49.448;8.612;2023-07-13T03:52:31;4.85;;;1.27;;
1106;SDS011;540;49.448;8.612;2023-07-13T03:55:00;5.78;;;1.38;;
1106;SDS011;540;49.448;8.612;2023-07-13T03:57:28;2.55;;;1.38;;
1106;SDS011;540;49.448;8.612;2023-07-13T03:59:57;4.47;;;1.40;;
1106;SDS011;540;49.448;8.612;2023-07-13T04:02:24;7.00;;;3.13;;
1106;SDS011;540;49.448;8.612;2023-07-13T04:04:52;4.05;;;1.80;;
1106;SDS011;540;49.448;8.612;2023-07-13T04:07:20;5.45;;;2.20;;
1106;SDS011;540;49.448;8.612;2023-07-13T04:09:48;4.50;;;2.60;;
1106;SDS011;540;49.448;8.612;2023-07-13T04:12:17;4.85;;;1.80;;
1106;SDS011;540;49.448;8.612;2023-07-13T04:14:45;6.63;;;2.72;;
1106;SDS011;540;49.448;8.612;2023-07-13T04:17:13;4.88;;;1.65;;
1106;SDS011;540;49.448;8.612;2023-07-13T04:19:41;2.92;;;1.80;;
1106;SDS011;540;49.448;8.612;2023-07-13T04:22:08;5.85;;;2.60;;
1106;SDS011;540;49.448;8.612;2023-07-13T04:24:36;3.72;;;2.03;;
1106;SDS011;540;49.448;8.612;2023-07-13T04:27:04;7.05;;;2.63;;
1106;SDS011;540;49.448;8.612;2023-07-13T04:29:34;3.83;;;1.80;;
1106;SDS011;540;49.448;8.612;2023-07-13T04:32:02;12.95;;;3.92;;
1106;SDS011;540;49.448;8.612;2023-07-13T04:34:31;2.95;;;1.45;;
1106;SDS011;540;49.448;8.612;2023-07-13T04:37:01;3.67;;;1.50;;
1106;SDS011;540;49.448;8.612;2023-07-13T04:39:28;2.70;;;1.75;;
1106;SDS011;540;49.448;8.612;2023-07-13T04:41:56;9.23;;;2.17;;
1106;SDS011;540;49.448;8.612;2023-07-13T04:44:24;3.28;;;2.08;;
1106;SDS011;540;49.448;8.612;2023-07-13T04:46:53;4.68;;;1.77;;
1106;SDS011;540;49.448;8.612;2023-07-13T04:49:21;2.90;;;1.40;;
1106;SDS011;540;49.448;8.612;2023-07-13T04:51:49;3.78;;;1.40;;
1106;SDS011;540;49.448;8.612;2023-07-13T04:54:16;4.97;;;1.70;;
1106;SDS011;540;49.448;8.612;2023-07-13T04:56:44;6.60;;;2.58;;
1106;SDS011;540;49.448;8.612;2023-07-13T04:59:12;5.13;;;3.08;;
1106;SDS011;540;49.448;8.612;2023-07-13T05:01:40;6.82;;;2.17;;
1106;SDS011;540;49.448;8.612;2023-07-13T05:04:09;3.08;;;1.70;;
1106;SDS011;540;49.448;8.612;2023-07-13T05:06:37;5.78;;;1.95;;
1106;SDS011;540;49.448;8.612;2023-07-13T05:09:05;5.05;;;1.92;;
1106;SDS011;540;49.448;8.612;2023-07-13T05:11:33;6.07;;;2.13;;
1106;SDS011;540;49.448;8.612;2023-07-13T05:14:01;3.35;;;1.90;;
1106;SDS011;540;49.448;8.612;2023-07-13T05:16:29;4.88;;;1.77;;
1106;SDS011;540;49.448;8.612;2023-07-13T05:18:58;2.47;;;1.63;;
1106;SDS011;540;49.448;8.612;2023-07-13T05:21:27;2.78;;;1.80;;
1106;SDS011;540;49.448;8.612;2023-07-13T05:23:55;2.22;;;1.40;;
1106;SDS011;540;49.448;8.612;2023-07-13T05:26:25;3.58;;;1.60;;
1106;SDS011;540;49.448;8.612;2023-07-13T05:28:53;3.78;;;2.00;;
1106;SDS011;540;49.448;8.612;2023-07-13T05:31:21;4.95;;;2.13;;
1106;SDS011;540;49.448;8.612;2023-07-13T05:33:49;7.50;;;2.55;;
1106;SDS011;540;49.448;8.612;2023-07-13T05:36:17;5.57;;;2.38;;
1106;SDS011;540;49.448;8.612;2023-07-13T05:38:46;9.02;;;2.30;;
1106;SDS011;540;49.448;8.612;2023-07-13T05:41:14;5.30;;;2.45;;
1106;SDS011;540;49.448;8.612;2023-07-13T05:43:42;7.25;;;2.50;;
1106;SDS011;540;49.448;8.612;2023-07-13T05:46:09;7.65;;;3.38;;
1106;SDS011;540;49.448;8.612;2023-07-13T05:48:37;8.05;;;2.78;;
1106;SDS011;540;49.448;8.612;2023-07-13T05:51:05;4.13;;;2.00;;
1106;SDS011;540;49.448;8.612;2023-07-13T05:53:33;6.38;;;2.22;;
1106;SDS011;540;49.448;8.612;2023-07-13T05:56:03;4.22;;;2.60;;
1106;SDS011;540;49.448;8.612;2023-07-13T05:58:31;4.35;;;2.00;;
1106;SDS011;540;49.448;8.612;2023-07-13T06:01:00;5.82;;;2.47;;
1106;SDS011;540;49.448;8.612;2023-07-13T06:03:30;8.93;;;3.08;;
1106;SDS011;540;49.448;8.612;2023-07-13T06:05:58;5.28;;;2.03;;
1106;SDS011;540;49.448;8.612;2023-07-13T06:08:27;8.48;;;2.45;;
1106;SDS011;540;49.448;8.612;2023-07-13T06:10:55;14.32;;;2.72;;
1106;SDS011;540;49.448;8.612;2023-07-13T06:13:31;7.50;;;2.58;;
1106;SDS011;540;49.448;8.612;2023-07-13T06:15:59;7.18;;;4.75;;
1106;SDS011;540;49.448;8.612;2023-07-13T06:18:30;6.07;;;3.42;;
1106;SDS011;540;49.448;8.612;2023-07-13T06:20:58;8.70;;;2.55;;
1106;SDS011;540;49.448;8.612;2023-07-13T06:23:26;5.28;;;3.00;;
1106;SDS011;540;49.448;8.612;2023-07-13T06:25:54;7.03;;;3.13;;
1106;SDS011;540;49.448;8.612;2023-07-13T06:28:22;6.70;;;2.53;;
1106;SDS011;540;49.448;8.612;2023-07-13T06:30:51;6.45;;;2.50;;
1106;SDS011;540;49.448;8.612;2023-07-13T06:33:19;4.55;;;2.10;;
1106;SDS011;540;49.448;8.612;2023-07-13T06:35:47;3.15;;;2.05;;
1106;SDS011;540;49.448;8.612;2023-07-13T06:38:15;6.22;;;1.95;;
1106;SDS011;540;49.448;8.612;2023-07-13T06:40:43;5.80;;;1.88;;
1106;SDS011;540;49.448;8.612;2023-07-13T06:43:11;3.88;;;2.50;;
1106;SDS011;540;49.448;8.612;2023-07-13T06:45:40;4.90;;;2.25;;
1106;SDS011;540;49.448;8.612;2023-07-13T06:48:10;5.88;;;2.25;;
1106;SDS011;540;49.448;8.612;2023-07-13T06:50:38;3.53;;;1.55;;
1106;SDS011;540;49.448;8.612;2023-07-13T06:53:06;4.93;;;2.47;;
1106;SDS011;540;49.448;8.612;2023-07-13T06:55:34;5.28;;;1.50;;
1106;SDS011;540;49.448;8.612;2023-07-13T06:58:02;5.07;;;2.00;;
1106;SDS011;540;49.448;8.612;2023-07-13T07:00:30;2.22;;;1.33;;
1106;SDS011;540;49.448;8.612;2023-07-13T07:02:58;2.92;;;1.10;;
1106;SDS011;540;49.448;8.612;2023-07-13T07:05:27;3.25;;;1.25;;
1106;SDS011;540;49.448;8.612;2023-07-13T07:07:55;4.65;;;1.35;;
1106;SDS011;540;49.448;8.612;2023-07-13T07:10:23;4.85;;;1.55;;
1106;SDS011;540;49.448;8.612;2023-07-13T07:12:50;4.65;;;1.50;;
1106;SDS011;540;49.448;8.612;2023-07-13T07:15:18;2.50;;;1.15;;
1106;SDS011;540;49.448;8.612;2023-07-13T07:17:46;3.38;;;0.90;;
1106;SDS011;540;49.448;8.612;2023-07-13T07:20:14;1.27;;;0.73;;
1106;SDS011;540;49.448;8.612;2023-07-13T07:22:43;7.57;;;1.38;;
1106;SDS011;540;49.448;8.612;2023-07-13T07:25:11;1.75;;;1.17;;
1106;SDS011;540;49.448;8.612;2023-07-13T07:27:39;3.15;;;1.50;;
1106;SDS011;540;49.448;8.612;2023-07-13T07:30:10;3.15;;;1.45;;
1106;SDS011;540;49.448;8.612;2023-07-13T07:32:42;6.00;;;1.30;;
1106;SDS011;540;49.448;8.612;2023-07-13T07:35:12;9.80;;;4.20;;
1106;SDS011;540;49.448;8.612;2023-07-13T07:37:40;3.78;;;1.52;;
1106;SDS011;540;49.448;8.612;2023-07-13T07:40:12;2.92;;;1.45;;
1106;SDS011;540;49.448;8.612;2023-07-13T07:42:43;4.50;;;1.98;;
1106;SDS011;540;49.448;8.612;2023-07-13T07:45:11;3.65;;;1.27;;
1106;SDS011;540;49.448;8.612;2023-07-13T07:47:39;1.85;;;1.50;;
1106;SDS011;540;49.448;8.612;2023-07-13T07:50:08;3.05;;;1.40;;
1106;SDS011;540;49.448;8.612;2023-07-13T07:52:36;4.32;;;1.88;;
1106;SDS011;540;49.448;8.612;2023-07-13T07:55:05;7.97;;;3.58;;
1106;SDS011;540;49.448;8.612;2023-07-13T07:57:38;4.32;;;1.75;;
1106;SDS011;540;49.448;8.612;2023-07-13T08:00:09;4.43;;;1.63;;
1106;SDS011;540;49.448;8.612;2023-07-13T08:02:41;4.35;;;1.48;;
1106;SDS011;540;49.448;8.612;2023-07-13T08:05:14;3.42;;;1.20;;
1106;SDS011;540;49.448;8.612;2023-07-13T08:07:46;3.53;;;1.70;;
1106;SDS011;540;49.448;8.612;2023-07-13T08:10:15;3.35;;;1.50;;
1106;SDS011;540;49.448;8.612;2023-07-13T08:12:45;2.67;;;1.48;;
1106;SDS011;540;49.448;8.612;2023-07-13T08:15:17;3.00;;;1.50;;
1106;SDS011;540;49.448;8.612;2023-07-13T08:17:47;4.18;;;1.50;;
1106;SDS011;540;49.448;8.612;2023-07-13T08:20:17;2.85;;;1.50;;
1106;SDS011;540;49.448;8.612;2023-07-13T08:22:46;3.88;;;1.30;;
1106;SDS011;540;49.448;8.612;2023-07-13T08:25:15;5.50;;;1.40;;
1106;SDS011;540;49.448;8.612;2023-07-13T08:27:46;3.08;;;1.30;;
1106;SDS011;540;49.448;8.612;2023-07-13T08:30:14;5.28;;;1.40;;
1106;SDS011;540;49.448;8.612;2023-07-13T08:32:43;1.88;;;1.25;;
1106;SDS011;540;49.448;8.612;2023-07-13T08:35:11;3.58;;;1.50;;
1106;SDS011;540;49.448;8.612;2023-07-13T08:37:39;3.85;;;1.52;;
1106;SDS011;540;49.448;8.612;2023-07-13T08:40:07;5.10;;;2.00;;
1106;SDS011;540;49.448;8.612;2023-07-13T08:42:37;3.53;;;1.70;;
1106;SDS011;540;49.448;8.612;2023-07-13T08:45:14;5.60;;;1.52;;
1106;SDS011;540;49.448;8.612;2023-07-13T08:47:48;5.65;;;1.58;;
1106;SDS011;540;49.448;8.612;2023-07-13T08:50:21;3.00;;;1.20;;
1106;SDS011;540;49.448;8.612;2023-07-13T08:52:53;2.55;;;1.30;;
1106;SDS011;540;49.448;8.612;2023-07-13T08:55:24;7.65;;;1.25;;
1106;SDS011;540;49.448;8.612;2023-07-13T08:57:59;8.57;;;1.33;;
1106;SDS011;540;49.448;8.612;2023-07-13T09:00:34;1.88;;;1.00;;
1106;SDS011;540;49.448;8.612;2023-07-13T09:03:12;6.25;;;1.50;;
1106;SDS011;540;49.448;8.612;2023-07-13T09:05:48;2.00;;;1.20;;
1106;SDS011;540;49.448;8.612;2023-07-13T09:08:28;5.15;;;2.05;;
1106;SDS011;540;49.448;8.612;2023-07-13T09:11:04;4.00;;;1.30;;
1106;SDS011;540;49.448;8.612;2023-07-13T09:13:50;3.22;;;1.00;;
1106;SDS011;540;49.448;8.612;2023-07-13T09:16:24;3.63;;;1.40;;
1106;SDS011;540;49.448;8.612;2023-07-13T09:18:54;4.80;;;1.20;;
1106;SDS011;540;49.448;8.612;2023-07-13T09:21:28;3.80;;;1.35;;
1106;SDS011;540;49.448;8.612;2023-07-13T09:23:59;3.65;;;1.25;;
1106;SDS011;540;49.448;8.612;2023-07-13T09:26:48;2.53;;;1.17;;
1106;SDS011;540;49.448;8.612;2023-07-13T09:29:16;12.07;;;1.55;;
1106;SDS011;540;49.448;8.612;2023-07-13T09:31:54;4.95;;;1.27;;
1106;SDS011;540;49.448;8.612;2023-07-13T09:34:27;3.65;;;1.08;;
1106;SDS011;540;49.448;8.612;2023-07-13T09:36:56;5.85;;;0.93;;
1106;SDS011;540;49.448;8.612;2023-07-13T09:39:25;4.43;;;1.38;;
1106;SDS011;540;49.448;8.612;2023-07-13T09:41:57;2.65;;;1.02;;
1106;SDS011;540;49.448;8.612;2023-07-13T09:44:34;5.25;;;1.40;;
1106;SDS011;540;49.448;8.612;2023-07-13T09:47:13;2.97;;;1.20;;
1106;SDS011;540;49.448;8.612;2023-07-13T09:49:43;4.43;;;1.45;;
1106;SDS011;540;49.448;8.612;2023-07-13T09:52:14;3.75;;;1.30;;
1106;SDS011;540;49.448;8.612;2023-07-13T09:54:44;2.75;;;1.20;;
1106;SDS011;540;49.448;8.612;2023-07-13T09:57:15;3.63;;;1.48;;
1106;SDS011;540;49.448;8.612;2023-07-13T09:59:45;5.75;;;1.35;;
1106;SDS011;540;49.448;8.612;2023-07-13T10:02:25;4.50;;;1.38;;
1106;SDS011;540;49.448;8.612;2023-07-13T10:04:56;3.08;;;1.15;;
1106;SDS011;540;49.448;8.612;2023-07-13T10:07:25;4.68;;;1.60;;
1106;SDS011;540;49.448;8.612;2023-07-13T10:09:55;3.28;;;1.20;;
1106;SDS011;540;49.448;8.612;2023-07-13T10:12:24;2.20;;;1.08;;
1106;SDS011;540;49.448;8.612;2023-07-13T10:14:54;2.08;;;0.93;;
1106;SDS011;540;49.448;8.612;2023-07-13T10:17:44;2.08;;;1.10;;
1106;SDS011;540;49.448;8.612;2023-07-13T10:20:12;2.95;;;1.00;;
1106;SDS011;540;49.448;8.612;2023-07-13T10:22:42;2.15;;;0.88;;
1106;SDS011;540;49.448;8.612;2023-07-13T10:25:19;5.03;;;1.05;;
1106;SDS011;540;49.448;8.612;2023-07-13T10:27:50;3.25;;;1.10;;
1106;SDS011;540;49.448;8.612;2023-07-13T10:30:21;2.78;;;1.48;;
1106;SDS011;540;49.448;8.612;2023-07-13T10:32:53;4.38;;;1.17;;
1106;SDS011;540;49.448;8.612;2023-07-13T10:35:21;4.80;;;1.00;;
1106;SDS011;540;49.448;8.612;2023-07-13T10:37:51;2.35;;;1.10;;
1106;SDS011;540;49.448;8.612;2023-07-13T10:40:25;3.28;;;1.00;;
1106;SDS011;540;49.448;8.612;2023-07-13T10:42:56;4.70;;;0.98;;
1106;SDS011;540;49.448;8.612;2023-07-13T10:45:28;3.17;;;0.95;;
1106;SDS011;540;49.448;8.612;2023-07-13T10:47:59;1.80;;;0.77;;
1106;SDS011;540;49.448;8.612;2023-07-13T10:50:29;2.85;;;1.20;;
1106;SDS011;540;49.448;8.612;2023-07-13T10:53:00;2.95;;;1.10;;
1106;SDS011;540;49.448;8.612;2023-07-13T10:55:30;3.03;;;1.13;;
1106;SDS011;540;49.448;8.612;2023-07-13T10:58:13;3.00;;;1.00;;
1106;SDS011;540;49.448;8.612;2023-07-13T11:00:49;5.72;;;1.25;;
1106;SDS011;540;49.448;8.612;2023-07-13T11:03:22;4.07;;;1.23;;
1106;SDS011;540;49.448;8.612;2023-07-13T11:05:52;3.70;;;1.10;;
1106;SDS011;540;49.448;8.612;2023-07-13T11:08:35;4.22;;;1.20;;
1106;SDS011;540;49.448;8.612;2023-07-13T11:11:32;2.55;;;1.00;;
1106;SDS011;540;49.448;8.612;2023-07-13T11:14:03;2.13;;;0.75;;
1106;SDS011;540;49.448;8.612;2023-07-13T11:16:41;1.15;;;1.00;;
1106;SDS011;540;49.448;8.612;2023-07-13T11:19:25;3.25;;;1.23;;
1106;SDS011;540;49.448;8.612;2023-07-13T11:22:02;2.10;;;1.10;;
1106;SDS011;540;49.448;8.612;2023-07-13T11:24:48;3.05;;;1.02;;
1106;SDS011;540;49.448;8.612;2023-07-13T11:27:37;2.03;;;1.00;;
1106;SDS011;540;49.448;8.612;2023-07-13T11:30:21;2.17;;;0.90;;
1106;SDS011;540;49.448;8.612;2023-07-13T11:33:09;1.63;;;0.85;;
1106;SDS011;540;49.448;8.612;2023-07-13T11:35:44;2.10;;;1.02;;
1106;SDS011;540;49.448;8.612;2023-07-13T11:38:20;1.40;;;0.95;;
1106;SDS011;540;49.448;8.612;2023-07-13T11:40:51;2.55;;;1.08;;
1106;SDS011;540;49.448;8.612;2023-07-13T11:43:22;2.58;;;0.88;;
1106;SDS011;540;49.448;8.612;2023-07-13T11:45:50;2.97;;;1.55;;
1106;SDS011;540;49.448;8.612;2023-07-13T11:48:29;3.30;;;1.45;;
1106;SDS011;540;49.448;8.612;2023-07-13T11:50:59;1.20;;;0.80;;
1106;SDS011;540;49.448;8.612;2023-07-13T11:53:33;2.58;;;1.00;;
1106;SDS011;540;49.448;8.612;2023-07-13T11:58:34;2.33;;;0.95;;
1106;SDS011;540;49.448;8.612;2023-07-13T12:01:02;2.53;;;1.25;;
1106;SDS011;540;49.448;8.612;2023-07-13T12:03:33;5.28;;;1.10;;
1106;SDS011;540;49.448;8.612;2023-07-13T12:06:03;2.22;;;0.80;;
1106;SDS011;540;49.448;8.612;2023-07-13T12:08:37;1.98;;;1.02;;
1106;SDS011;540;49.448;8.612;2023-07-13T12:11:11;2.97;;;1.05;;
1106;SDS011;540;49.448;8.612;2023-07-13T12:13:43;3.13;;;0.90;;
1106;SDS011;540;49.448;8.612;2023-07-13T12:16:13;2.35;;;0.90;;
1106;SDS011;540;49.448;8.612;2023-07-13T12:18:44;2.08;;;1.15;;
1106;SDS011;540;49.448;8.612;2023-07-13T12:21:16;4.13;;;1.10;;
1106;SDS011;540;49.448;8.612;2023-07-13T12:23:47;1.48;;;0.70;;
1106;SDS011;540;49.448;8.612;2023-07-13T12:26:16;1.67;;;1.00;;
1106;SDS011;540;49.448;8.612;2023-07-13T12:28:47;3.45;;;1.38;;
1106;SDS011;540;49.448;8.612;2023-07-13T12:31:25;1.58;;;1.08;;
1106;SDS011;540;49.448;8.612;2023-07-13T12:34:01;4.45;;;1.20;;
1106;SDS011;540;49.448;8.612;2023-07-13T12:36:34;3.92;;;1.00;;
1106;SDS011;540;49.448;8.612;2023-07-13T12:39:04;1.42;;;0.75;;
1106;SDS011;540;49.448;8.612;2023-07-13T12:41:40;5.38;;;1.00;;
1106;SDS011;540;49.448;8.612;2023-07-13T12:44:11;1.42;;;0.80;;
1106;SDS011;540;49.448;8.612;2023-07-13T12:46:50;1.58;;;0.90;;
1106;SDS011;540;49.448;8.612;2023-07-13T12:49:25;1.77;;;0.90;;
1106;SDS011;540;49.448;8.612;2023-07-13T12:51:56;1.92;;;1.33;;
1106;SDS011;540;49.448;8.612;2023-07-13T12:54:25;3.92;;;1.05;;
1106;SDS011;540;49.448;8.612;2023-07-13T12:56:55;1.75;;;1.05;;
1106;SDS011;540;49.448;8.612;2023-07-13T12:59:25;1.90;;;0.70;;
1106;SDS011;540;49.448;8.612;2023-07-13T13:01:59;2.40;;;1.10;;
1106;SDS011;540;49.448;8.612;2023-07-13T13:04:30;6.40;;;1.00;;
1106;SDS011;540;49.448;8.612;2023-07-13T13:07:02;2.03;;;0.90;;
1106;SDS011;540;49.448;8.612;2023-07-13T13:09:31;1.77;;;0.88;;
1106;SDS011;540;49.448;8.612;2023-07-13T13:11:58;2.35;;;1.25;;
1106;SDS011;540;49.448;8.612;2023-07-13T13:14:26;1.77;;;0.82;;
1106;SDS011;540;49.448;8.612;2023-07-13T13:16:55;2.67;;;1.40;;
1106;SDS011;540;49.448;8.612;2023-07-13T13:19:25;5.15;;;1.20;;
1106;SDS011;540;49.448;8.612;2023-07-13T13:21:56;3.42;;;1.60;;
1106;SDS011;540;49.448;8.612;2023-07-13T13:24:26;1.85;;;0.90;;
1106;SDS011;540;49.448;8.612;2023-07-13T13:26:55;2.58;;;1.00;;
1106;SDS011;540;49.448;8.612;2023-07-13T13:29:24;1.67;;;1.10;;
1106;SDS011;540;49.448;8.612;2023-07-13T13:31:52;3.22;;;1.45;;
1106;SDS011;540;49.448;8.612;2023-07-13T13:34:21;4.28;;;1.38;;
1106;SDS011;540;49.448;8.612;2023-07-13T13:36:50;1.73;;;0.98;;
1106;SDS011;540;49.448;8.612;2023-07-13T13:39:27;3.30;;;1.05;;
1106;SDS011;540;49.448;8.612;2023-07-13T13:41:59;2.15;;;1.30;;
1106;SDS011;540;49.448;8.612;2023-07-13T13:44:27;4.68;;;1.50;;
1106;SDS011;540;49.448;8.612;2023-07-13T13:46:55;1.00;;;0.90;;
1106;SDS011;540;49.448;8.612;2023-07-13T13:49:24;3.97;;;1.10;;
1106;SDS011;540;49.448;8.612;2023-07-13T13:51:54;3.67;;;1.10;;
1106;SDS011;540;49.448;8.612;2023-07-13T13:54:23;1.35;;;0.80;;
1106;SDS011;540;49.448;8.612;2023-07-13T13:56:53;2.20;;;1.00;;
1106;SDS011;540;49.448;8.612;2023-07-13T13:59:21;2.60;;;1.02;;
1106;SDS011;540;49.448;8.612;2023-07-13T14:01:49;2.15;;;1.38;;
1106;SDS011;540;49.448;8.612;2023-07-13T14:04:18;2.67;;;0.98;;
1106;SDS011;540;49.448;8.612;2023-07-13T14:06:49;3.03;;;1.83;;
1106;SDS011;540;49.448;8.612;2023-07-13T14:09:17;1.70;;;1.13;;
1106;SDS011;540;49.448;8.612;2023-07-13T14:11:46;2.35;;;1.60;;
1106;SDS011;540;49.448;8.612;2023-07-13T14:14:19;3.10;;;1.30;;
1106;SDS011;540;49.448;8.612;2023-07-13T14:16:50;2.92;;;1.30;;
1106;SDS011;540;49.448;8.612;2023-07-13T14:19:20;1.95;;;1.33;;
1106;SDS011;540;49.448;8.612;2023-07-13T14:21:49;2.83;;;0.90;;
1106;SDS011;540;49.448;8.612;2023-07-13T14:24:20;2.13;;;1.10;;
1106;SDS011;540;49.448;8.612;2023-07-13T14:26:48;2.00;;;1.08;;
1106;SDS011;540;49.448;8.612;2023-07-13T14:29:17;2.28;;;1.15;;
1106;SDS011;540;49.448;8.612;2023-07-13T14:31:50;2.53;;;1.20;;
1106;SDS011;540;49.448;8.612;2023-07-13T14:34:18;3.20;;;1.25;;
1106;SDS011;540;49.448;8.612;2023-07-13T14:36:47;2.97;;;1.33;;
1106;SDS011;540;49.448;8.612;2023-07-13T14:39:17;4.18;;;1.15;;
1106;SDS011;540;49.448;8.612;2023-07-13T14:41:49;3.80;;;1.10;;
1106;SDS011;540;49.448;8.612;2023-07-13T14:44:20;1.30;;;0.90;;
1106;SDS011;540;49.448;8.612;2023-07-13T14:46:52;1.95;;;0.90;;
1106;SDS011;540;49.448;8.612;2023-07-13T14:49:21;5.03;;;1.42;;
1106;SDS011;540;49.448;8.612;2023-07-13T14:51:54;2.08;;;1.10;;
1106;SDS011;540;49.448;8.612;2023-07-13T14:54:23;2.17;;;1.27;;
1106;SDS011;540;49.448;8.612;2023-07-13T14:56:51;4.00;;;1.20;;
1106;SDS011;540;49.448;8.612;2023-07-13T14:59:19;4.57;;;1.48;;
1106;SDS011;540;49.448;8.612;2023-07-13T15:01:49;2.38;;;1.33;;
1106;SDS011;540;49.448;8.612;2023-07-13T15:04:17;1.45;;;0.93;;
1106;SDS011;540;49.448;8.612;2023-07-13T15:06:54;2.58;;;0.90;;
1106;SDS011;540;49.448;8.612;2023-07-13T15:09:25;2.25;;;0.98;;
1106;SDS011;540;49.448;8.612;2023-07-13T15:11:55;5.60;;;1.50;;
1106;SDS011;540;49.448;8.612;2023-07-13T15:14:25;4.90;;;1.10;;
1106;SDS011;540;49.448;8.612;2023-07-13T15:16:57;2.88;;;1.20;;
1106;SDS011;540;49.448;8.612;2023-07-13T15:19:25;3.50;;;1.15;;
1106;SDS011;540;49.448;8.612;2023-07-13T15:21:54;2.92;;;1.08;;
1106;SDS011;540;49.448;8.612;2023-07-13T15:24:23;1.95;;;1.02;;
1106;SDS011;540;49.448;8.612;2023-07-13T15:26:51;3.47;;;1.33;;
1106;SDS011;540;49.448;8.612;2023-07-13T15:29:19;1.67;;;1.02;;
1106;SDS011;540;49.448;8.612;2023-07-13T15:31:48;2.80;;;1.20;;
1106;SDS011;540;49.448;8.612;2023-07-13T15:34:17;3.97;;;1.23;;
1106;SDS011;540;49.448;8.612;2023-07-13T15:36:51;3.27;;;1.47;;
1106;SDS011;540;49.448;8.612;2023-07-13T15:39:18;2.63;;;1.23;;
1106;SDS011;540;49.448;8.612;2023-07-13T15:41:46;6.20;;;1.13;;
1106;SDS011;540;49.448;8.612;2023-07-13T15:44:22;3.92;;;1.05;;
1106;SDS011;540;49.448;8.612;2023-07-13T15:46:54;1.30;;;1.13;;
1106;SDS011;540;49.448;8.612;2023-07-13T15:49:22;3.00;;;0.90;;
1106;SDS011;540;49.448;8.612;2023-07-13T15:51:50;2.33;;;1.00;;
1106;SDS011;540;49.448;8.612;2023-07-13T15:54:18;3.55;;;1.05;;